sensor_id;sensor_type;location;lat;lon;timestamp;pressure;altitude;pressure_sealevel;temperature;humidity
10881;BME280;5493;48.884;8.338;2024-03-08T00:00:56;100099.75;;;5.99;100.00
10881;BME280;5493;48.884;8.338;2024-03-08T00:03:23;100101.66;;;5.84;100.00
10881;BME280;5493;48.884;8.338;2024-03-08T00:05:49;100096.34;;;6.12;100.00
10881;BME280;5493;48.884;8.338;2024-03-08T00:08:16;100091.34;;;5.53;100.00
10881;BME280;5493;48.884;8.338;2024-03-08T00:10:42;100088.66;;;6.02;100.00
10881;BME280;5493;48.884;8.338;2024-03-08T00:13:10;100077.53;;;5.99;100.00
10881;BME280;5493;48.884;8.338;2024-03-08T00:15:37;100084.44;;;6.14;100.00
10881;BME280;5493;48.884;8.338;2024-03-08T00:18:04;100083.34;;;6.36;100.00
10881;BME280;5493;48.884;8.338;2024-03-08T00:20:30;100081.47;;;6.03;100.00
10881;BME280;5493;48.884;8.338;2024-03-08T00:22:57;100071.66;;;6.16;100.00
10881;BME280;5493;48.884;8.338;2024-03-08T00:25:24;100082.66;;;6.28;100.00
10881;BME280;5493;48.884;8.338;2024-03-08T00:27:50;100074.63;;;6.28;100.00
10881;BME280;5493;48.884;8.338;2024-03-08T00:30:22;100070.09;;;6.22;100.00
10881;BME280;5493;48.884;8.338;2024-03-08T00:32:50;100069.31;;;6.34;100.00
10881;BME280;5493;48.884;8.338;2024-03-08T00:35:16;100069.41;;;6.13;100.00
10881;BME280;5493;48.884;8.338;2024-03-08T00:37:43;100070.84;;;6.16;100.00
10881;BME280;5493;48.884;8.338;2024-03-08T00:40:12;100073.78;;;6.21;100.00
10881;BME280;5493;48.884;8.338;2024-03-08T00:42:39;100063.28;;;6.26;100.00
10881;BME280;5493;48.884;8.338;2024-03-08T00:45:06;100057.34;;;6.30;100.00
10881;BME280;5493;48.884;8.338;2024-03-08T00:47:36;100062.69;;;6.30;100.00
10881;BME280;5493;48.884;8.338;2024-03-08T00:50:03;100055.25;;;6.26;100.00
10881;BME280;5493;48.884;8.338;2024-03-08T00:52:30;100056.56;;;6.36;100.00
10881;BME280;5493;48.884;8.338;2024-03-08T00:54:57;100066.88;;;6.39;100.00
10881;BME280;5493;48.884;8.338;2024-03-08T00:57:23;100065.66;;;6.08;100.00
10881;BME280;5493;48.884;8.338;2024-03-08T00:59:50;100058.66;;;6.07;100.00
10881;BME280;5493;48.884;8.338;2024-03-08T01:02:18;100058.75;;;5.92;100.00
10881;BME280;5493;48.884;8.338;2024-03-08T01:04:45;100055.00;;;5.86;100.00
10881;BME280;5493;48.884;8.338;2024-03-08T01:07:13;100042.31;;;5.95;100.00
10881;BME280;5493;48.884;8.338;2024-03-08T01:09:39;100049.28;;;5.89;100.00
10881;BME280;5493;48.884;8.338;2024-03-08T01:12:06;100051.59;;;5.99;100.00
10881;BME280;5493;48.884;8.338;2024-03-08T01:14:33;100045.97;;;5.66;100.00
10881;BME280;5493;48.884;8.338;2024-03-08T01:16:59;100046.47;;;5.76;100.00
10881;BME280;5493;48.884;8.338;2024-03-08T01:19:26;100034.53;;;5.79;100.00
10881;BME280;5493;48.884;8.338;2024-03-08T01:21:54;100032.13;;;5.56;100.00
10881;BME280;5493;48.884;8.338;2024-03-08T01:24:22;100021.47;;;5.63;100.00
10881;BME280;5493;48.884;8.338;2024-03-08T01:26:48;100019.97;;;5.81;100.00
10881;BME280;5493;48.884;8.338;2024-03-08T01:29:15;100017.69;;;5.78;100.00
10881;BME280;5493;48.884;8.338;2024-03-08T01:31:41;100014.19;;;5.78;100.00
10881;BME280;5493;48.884;8.338;2024-03-08T01:34:08;100011.25;;;5.73;100.00
10881;BME280;5493;48.884;8.338;2024-03-08T01:36:35;100004.44;;;5.70;100.00
10881;BME280;5493;48.884;8.338;2024-03-08T01:39:04;100014.94;;;5.72;100.00
10881;BME280;5493;48.884;8.338;2024-03-08T01:41:33;100005.06;;;5.72;100.00
10881;BME280;5493;48.884;8.338;2024-03-08T01:44:00;100001.59;;;5.51;100.00
10881;BME280;5493;48.884;8.338;2024-03-08T01:46:27;100001.47;;;5.31;100.00
10881;BME280;5493;48.884;8.338;2024-03-08T01:48:58;99989.13;;;5.30;100.00
10881;BME280;5493;48.884;8.338;2024-03-08T01:51:26;99985.91;;;5.41;100.00
10881;BME280;5493;48.884;8.338;2024-03-08T01:53:55;99982.41;;;5.40;100.00
10881;BME280;5493;48.884;8.338;2024-03-08T01:56:25;99973.88;;;5.52;100.00
10881;BME280;5493;48.884;8.338;2024-03-08T01:58:52;99974.97;;;5.36;100.00
10881;BME280;5493;48.884;8.338;2024-03-08T02:01:18;99964.94;;;5.38;100.00
10881;BME280;5493;48.884;8.338;2024-03-08T02:03:45;99965.50;;;5.33;100.00
10881;BME280;5493;48.884;8.338;2024-03-08T02:06:12;99959.91;;;5.28;100.00
10881;BME280;5493;48.884;8.338;2024-03-08T02:08:40;99962.97;;;5.25;100.00
10881;BME280;5493;48.884;8.338;2024-03-08T02:11:11;99951.72;;;5.09;100.00
10881;BME280;5493;48.884;8.338;2024-03-08T02:13:39;99945.97;;;5.33;100.00
10881;BME280;5493;48.884;8.338;2024-03-08T02:16:06;99947.78;;;5.05;100.00
10881;BME280;5493;48.884;8.338;2024-03-08T02:18:33;99957.28;;;5.35;100.00
10881;BME280;5493;48.884;8.338;2024-03-08T02:21:03;99941.91;;;5.43;100.00
10881;BME280;5493;48.884;8.338;2024-03-08T02:23:29;99947.84;;;5.39;100.00
10881;BME280;5493;48.884;8.338;2024-03-08T02:25:56;99957.53;;;5.40;100.00
10881;BME280;5493;48.884;8.338;2024-03-08T02:28:24;99945.94;;;5.05;100.00
10881;BME280;5493;48.884;8.338;2024-03-08T02:30:51;99951.31;;;5.33;100.00
10881;BME280;5493;48.884;8.338;2024-03-08T02:33:20;99937.34;;;5.10;100.00
10881;BME280;5493;48.884;8.338;2024-03-08T02:35:46;99945.81;;;5.13;100.00
10881;BME280;5493;48.884;8.338;2024-03-08T02:38:16;99940.59;;;5.05;100.00
10881;BME280;5493;48.884;8.338;2024-03-08T02:40:44;99931.84;;;5.18;100.00
10881;BME280;5493;48.884;8.338;2024-03-08T02:43:11;99925.56;;;5.04;100.00
10881;BME280;5493;48.884;8.338;2024-03-08T02:45:38;99927.81;;;5.01;100.00
10881;BME280;5493;48.884;8.338;2024-03-08T02:48:05;99928.66;;;4.80;100.00
10881;BME280;5493;48.884;8.338;2024-03-08T02:50:32;99926.09;;;4.51;100.00
10881;BME280;5493;48.884;8.338;2024-03-08T02:53:00;99932.72;;;4.76;100.00
10881;BME280;5493;48.884;8.338;2024-03-08T02:55:27;99917.53;;;4.76;100.00
10881;BME280;5493;48.884;8.338;2024-03-08T02:57:54;99923.13;;;5.03;100.00
10881;BME280;5493;48.884;8.338;2024-03-08T03:00:22;99921.97;;;4.69;100.00
10881;BME280;5493;48.884;8.338;2024-03-08T03:02:49;99918.34;;;4.98;100.00
10881;BME280;5493;48.884;8.338;2024-03-08T03:05:19;99915.03;;;4.75;100.00
10881;BME280;5493;48.884;8.338;2024-03-08T03:07:45;99917.31;;;4.78;100.00
10881;BME280;5493;48.884;8.338;2024-03-08T03:10:12;99918.03;;;4.44;100.00
10881;BME280;5493;48.884;8.338;2024-03-08T03:12:44;99915.53;;;5.06;100.00
10881;BME280;5493;48.884;8.338;2024-03-08T03:15:11;99904.41;;;4.81;100.00
10881;BME280;5493;48.884;8.338;2024-03-08T03:17:38;99902.78;;;4.80;100.00
10881;BME280;5493;48.884;8.338;2024-03-08T03:20:06;99898.44;;;4.79;100.00
10881;BME280;5493;48.884;8.338;2024-03-08T03:22:36;99893.06;;;4.52;100.00
10881;BME280;5493;48.884;8.338;2024-03-08T03:25:04;99892.34;;;4.64;100.00
10881;BME280;5493;48.884;8.338;2024-03-08T03:27:31;99888.69;;;4.93;100.00
10881;BME280;5493;48.884;8.338;2024-03-08T03:29:59;99888.97;;;4.77;100.00
10881;BME280;5493;48.884;8.338;2024-03-08T03:32:46;99886.78;;;4.59;100.00
10881;BME280;5493;48.884;8.338;2024-03-08T03:35:13;99885.88;;;4.52;100.00
10881;BME280;5493;48.884;8.338;2024-03-08T03:37:40;99880.84;;;4.64;100.00
10881;BME280;5493;48.884;8.338;2024-03-08T03:40:08;99880.19;;;4.83;100.00
10881;BME280;5493;48.884;8.338;2024-03-08T03:42:35;99874.28;;;4.45;100.00
10881;BME280;5493;48.884;8.338;2024-03-08T03:45:05;99869.97;;;4.44;100.00
10881;BME280;5493;48.884;8.338;2024-03-08T03:47:32;99875.50;;;4.64;100.00
10881;BME280;5493;48.884;8.338;2024-03-08T03:49:58;99865.88;;;4.27;100.00
10881;BME280;5493;48.884;8.338;2024-03-08T03:52:27;99870.28;;;4.34;100.00
10881;BME280;5493;48.884;8.338;2024-03-08T03:54:54;99862.47;;;4.54;100.00
10881;BME280;5493;48.884;8.338;2024-03-08T03:57:20;99860.44;;;4.35;100.00
10881;BME280;5493;48.884;8.338;2024-03-08T03:59:48;99868.25;;;4.36;100.00
10881;BME280;5493;48.884;8.338;2024-03-08T04:02:17;99865.81;;;4.20;100.00
10881;BME280;5493;48.884;8.338;2024-03-08T04:04:46;99856.31;;;4.32;100.00
10881;BME280;5493;48.884;8.338;2024-03-08T04:07:13;99863.41;;;4.25;100.00
10881;BME280;5493;48.884;8.338;2024-03-08T04:09:39;99857.81;;;4.20;100.00
10881;BME280;5493;48.884;8.338;2024-03-08T04:12:06;99862.41;;;4.26;100.00
10881;BME280;5493;48.884;8.338;2024-03-08T04:14:35;99857.63;;;4.22;100.00
10881;BME280;5493;48.884;8.338;2024-03-08T04:17:01;99860.31;;;4.22;100.00
10881;BME280;5493;48.884;8.338;2024-03-08T04:19:30;99858.97;;;4.32;100.00
10881;BME280;5493;48.884;8.338;2024-03-08T04:21:56;99852.84;;;4.17;100.00
10881;BME280;5493;48.884;8.338;2024-03-08T04:24:23;99857.13;;;4.12;100.00
10881;BME280;5493;48.884;8.338;2024-03-08T04:26:49;99848.66;;;4.08;100.00
10881;BME280;5493;48.884;8.338;2024-03-08T04:29:16;99844.47;;;4.20;100.00
10881;BME280;5493;48.884;8.338;2024-03-08T04:31:42;99842.00;;;4.19;100.00
10881;BME280;5493;48.884;8.338;2024-03-08T04:34:09;99844.03;;;4.17;100.00
10881;BME280;5493;48.884;8.338;2024-03-08T04:36:37;99845.72;;;4.03;100.00
10881;BME280;5493;48.884;8.338;2024-03-08T04:39:04;99840.78;;;4.21;100.00
10881;BME280;5493;48.884;8.338;2024-03-08T04:41:31;99835.41;;;4.15;100.00
10881;BME280;5493;48.884;8.338;2024-03-08T04:43:59;99832.50;;;3.95;100.00
10881;BME280;5493;48.884;8.338;2024-03-08T04:46:26;99829.34;;;4.06;100.00
10881;BME280;5493;48.884;8.338;2024-03-08T04:48:53;99829.41;;;4.13;100.00
10881;BME280;5493;48.884;8.338;2024-03-08T04:51:20;99832.22;;;4.05;100.00
10881;BME280;5493;48.884;8.338;2024-03-08T04:53:48;99831.28;;;4.12;100.00
10881;BME280;5493;48.884;8.338;2024-03-08T04:56:15;99838.41;;;4.26;100.00
10881;BME280;5493;48.884;8.338;2024-03-08T04:58:41;99830.50;;;4.18;100.00
10881;BME280;5493;48.884;8.338;2024-03-08T05:01:08;99828.34;;;4.07;100.00
10881;BME280;5493;48.884;8.338;2024-03-08T05:03:36;99825.66;;;4.07;100.00
10881;BME280;5493;48.884;8.338;2024-03-08T05:06:03;99830.16;;;4.07;100.00
10881;BME280;5493;48.884;8.338;2024-03-08T05:08:30;99823.78;;;4.22;100.00
10881;BME280;5493;48.884;8.338;2024-03-08T05:10:59;99825.28;;;4.10;100.00
10881;BME280;5493;48.884;8.338;2024-03-08T05:13:29;99829.56;;;4.05;100.00
10881;BME280;5493;48.884;8.338;2024-03-08T05:15:55;99832.78;;;4.00;100.00
10881;BME280;5493;48.884;8.338;2024-03-08T05:18:23;99822.44;;;4.12;100.00
10881;BME280;5493;48.884;8.338;2024-03-08T05:20:50;99825.59;;;4.01;100.00
10881;BME280;5493;48.884;8.338;2024-03-08T05:23:17;99824.34;;;4.18;100.00
10881;BME280;5493;48.884;8.338;2024-03-08T05:25:44;99826.16;;;3.96;100.00
10881;BME280;5493;48.884;8.338;2024-03-08T05:28:13;99821.56;;;4.05;100.00
10881;BME280;5493;48.884;8.338;2024-03-08T05:30:39;99817.41;;;4.02;100.00
10881;BME280;5493;48.884;8.338;2024-03-08T05:33:06;99815.88;;;3.93;100.00
10881;BME280;5493;48.884;8.338;2024-03-08T05:35:35;99808.03;;;3.91;100.00
10881;BME280;5493;48.884;8.338;2024-03-08T05:38:02;99813.84;;;3.95;100.00
10881;BME280;5493;48.884;8.338;2024-03-08T05:40:28;99815.28;;;4.12;100.00
10881;BME280;5493;48.884;8.338;2024-03-08T05:42:57;99816.84;;;4.07;100.00
10881;BME280;5493;48.884;8.338;2024-03-08T05:45:25;99813.13;;;3.86;100.00
10881;BME280;5493;48.884;8.338;2024-03-08T05:47:51;99812.91;;;4.24;100.00
10881;BME280;5493;48.884;8.338;2024-03-08T05:50:18;99813.13;;;4.22;100.00
10881;BME280;5493;48.884;8.338;2024-03-08T05:52:45;99820.78;;;4.11;100.00
10881;BME280;5493;48.884;8.338;2024-03-08T05:55:12;99816.59;;;4.23;100.00
10881;BME280;5493;48.884;8.338;2024-03-08T05:57:39;99816.16;;;4.40;100.00
10881;BME280;5493;48.884;8.338;2024-03-08T06:00:06;99814.28;;;4.20;100.00
10881;BME280;5493;48.884;8.338;2024-03-08T06:02:34;99811.00;;;4.18;100.00
10881;BME280;5493;48.884;8.338;2024-03-08T06:05:07;99807.28;;;4.12;100.00
10881;BME280;5493;48.884;8.338;2024-03-08T06:07:34;99799.66;;;3.94;100.00
10881;BME280;5493;48.884;8.338;2024-03-08T06:10:00;99802.72;;;4.13;100.00
10881;BME280;5493;48.884;8.338;2024-03-08T06:12:28;99812.94;;;4.09;100.00
10881;BME280;5493;48.884;8.338;2024-03-08T06:14:58;99813.66;;;4.18;100.00
10881;BME280;5493;48.884;8.338;2024-03-08T06:17:25;99817.22;;;4.25;100.00
10881;BME280;5493;48.884;8.338;2024-03-08T06:19:53;99808.91;;;4.34;100.00
10881;BME280;5493;48.884;8.338;2024-03-08T06:22:19;99799.00;;;4.28;100.00
10881;BME280;5493;48.884;8.338;2024-03-08T06:24:46;99803.72;;;4.05;100.00
10881;BME280;5493;48.884;8.338;2024-03-08T06:27:12;99803.00;;;4.39;100.00
10881;BME280;5493;48.884;8.338;2024-03-08T06:29:39;99808.84;;;4.28;100.00
10881;BME280;5493;48.884;8.338;2024-03-08T06:32:06;99812.47;;;4.20;100.00
10881;BME280;5493;48.884;8.338;2024-03-08T06:34:33;99805.03;;;4.16;100.00
10881;BME280;5493;48.884;8.338;2024-03-08T06:37:02;99805.47;;;4.40;100.00
10881;BME280;5493;48.884;8.338;2024-03-08T06:39:28;99802.75;;;4.55;100.00
10881;BME280;5493;48.884;8.338;2024-03-08T06:41:57;99814.38;;;4.26;100.00
10881;BME280;5493;48.884;8.338;2024-03-08T06:44:23;99808.47;;;4.31;100.00
10881;BME280;5493;48.884;8.338;2024-03-08T06:46:51;99809.13;;;4.61;100.00
10881;BME280;5493;48.884;8.338;2024-03-08T06:49:17;99808.00;;;4.48;100.00
10881;BME280;5493;48.884;8.338;2024-03-08T06:51:44;99808.63;;;4.72;100.00
10881;BME280;5493;48.884;8.338;2024-03-08T06:54:12;99808.13;;;4.89;100.00
10881;BME280;5493;48.884;8.338;2024-03-08T06:56:39;99806.03;;;4.85;100.00
10881;BME280;5493;48.884;8.338;2024-03-08T06:59:05;99805.38;;;4.76;100.00
10881;BME280;5493;48.884;8.338;2024-03-08T07:01:36;99803.69;;;5.03;100.00
10881;BME280;5493;48.884;8.338;2024-03-08T07:04:04;99808.91;;;4.83;100.00
10881;BME280;5493;48.884;8.338;2024-03-08T07:06:31;99797.94;;;4.72;100.00
10881;BME280;5493;48.884;8.338;2024-03-08T07:08:59;99802.78;;;4.89;100.00
10881;BME280;5493;48.884;8.338;2024-03-08T07:11:29;99792.69;;;4.57;100.00
10881;BME280;5493;48.884;8.338;2024-03-08T07:13:55;99790.38;;;4.75;100.00
10881;BME280;5493;48.884;8.338;2024-03-08T07:16:23;99791.56;;;5.01;100.00
10881;BME280;5493;48.884;8.338;2024-03-08T07:18:52;99794.25;;;4.73;100.00
10881;BME280;5493;48.884;8.338;2024-03-08T07:21:18;99795.34;;;5.13;100.00
10881;BME280;5493;48.884;8.338;2024-03-08T07:23:46;99791.53;;;4.94;100.00
10881;BME280;5493;48.884;8.338;2024-03-08T07:26:21;99789.66;;;4.88;100.00
10881;BME280;5493;48.884;8.338;2024-03-08T07:28:49;99792.31;;;5.22;100.00
10881;BME280;5493;48.884;8.338;2024-03-08T07:31:16;99785.81;;;5.31;100.00
10881;BME280;5493;48.884;8.338;2024-03-08T07:33:52;99786.13;;;5.63;100.00
10881;BME280;5493;48.884;8.338;2024-03-08T07:36:18;99781.25;;;5.79;100.00
10881;BME280;5493;48.884;8.338;2024-03-08T07:38:45;99779.69;;;5.91;100.00
10881;BME280;5493;48.884;8.338;2024-03-08T07:41:12;99784.13;;;5.71;100.00
10881;BME280;5493;48.884;8.338;2024-03-08T07:43:39;99776.78;;;5.86;100.00
10881;BME280;5493;48.884;8.338;2024-03-08T07:46:06;99771.06;;;6.09;100.00
10881;BME280;5493;48.884;8.338;2024-03-08T07:48:35;99773.91;;;5.88;100.00
10881;BME280;5493;48.884;8.338;2024-03-08T07:51:02;99767.78;;;6.14;100.00
10881;BME280;5493;48.884;8.338;2024-03-08T07:53:29;99767.16;;;6.12;100.00
10881;BME280;5493;48.884;8.338;2024-03-08T07:55:55;99757.31;;;6.32;100.00
10881;BME280;5493;48.884;8.338;2024-03-08T07:58:22;99756.69;;;6.30;100.00
10881;BME280;5493;48.884;8.338;2024-03-08T08:00:49;99755.47;;;6.39;100.00
10881;BME280;5493;48.884;8.338;2024-03-08T08:03:16;99753.19;;;6.69;100.00
10881;BME280;5493;48.884;8.338;2024-03-08T08:05:46;99758.94;;;6.85;100.00
10881;BME280;5493;48.884;8.338;2024-03-08T08:08:14;99747.44;;;6.72;100.00
10881;BME280;5493;48.884;8.338;2024-03-08T08:10:41;99749.25;;;6.84;100.00
10881;BME280;5493;48.884;8.338;2024-03-08T08:13:07;99750.84;;;7.12;100.00
10881;BME280;5493;48.884;8.338;2024-03-08T08:15:34;99745.22;;;7.33;100.00
10881;BME280;5493;48.884;8.338;2024-03-08T08:18:00;99741.13;;;7.30;100.00
10881;BME280;5493;48.884;8.338;2024-03-08T08:20:29;99739.72;;;7.15;100.00
10881;BME280;5493;48.884;8.338;2024-03-08T08:22:56;99739.81;;;7.39;100.00
10881;BME280;5493;48.884;8.338;2024-03-08T08:25:24;99742.06;;;7.49;100.00
10881;BME280;5493;48.884;8.338;2024-03-08T08:27:50;99743.50;;;7.52;100.00
10881;BME280;5493;48.884;8.338;2024-03-08T08:30:18;99739.91;;;7.64;100.00
10881;BME280;5493;48.884;8.338;2024-03-08T08:32:44;99746.28;;;7.76;100.00
10881;BME280;5493;48.884;8.338;2024-03-08T08:35:12;99734.47;;;7.84;100.00
10881;BME280;5493;48.884;8.338;2024-03-08T08:37:40;99728.63;;;7.93;100.00
10881;BME280;5493;48.884;8.338;2024-03-08T08:40:07;99731.38;;;8.12;100.00
10881;BME280;5493;48.884;8.338;2024-03-08T08:42:35;99730.03;;;8.27;100.00
10881;BME280;5493;48.884;8.338;2024-03-08T08:45:03;99727.72;;;8.37;100.00
10881;BME280;5493;48.884;8.338;2024-03-08T08:47:33;99724.09;;;8.19;100.00
10881;BME280;5493;48.884;8.338;2024-03-08T08:50:00;99721.59;;;8.24;100.00
10881;BME280;5493;48.884;8.338;2024-03-08T08:52:26;99721.78;;;7.98;100.00
10881;BME280;5493;48.884;8.338;2024-03-08T08:54:55;99718.34;;;8.47;100.00
10881;BME280;5493;48.884;8.338;2024-03-08T08:57:22;99714.16;;;8.51;100.00
10881;BME280;5493;48.884;8.338;2024-03-08T08:59:49;99711.34;;;8.46;100.00
10881;BME280;5493;48.884;8.338;2024-03-08T09:02:16;99711.81;;;8.36;100.00
10881;BME280;5493;48.884;8.338;2024-03-08T09:04:46;99709.78;;;8.56;100.00
10881;BME280;5493;48.884;8.338;2024-03-08T09:07:13;99706.94;;;8.51;100.00
10881;BME280;5493;48.884;8.338;2024-03-08T09:09:39;99709.56;;;8.58;100.00
10881;BME280;5493;48.884;8.338;2024-03-08T09:12:08;99697.06;;;8.88;100.00
10881;BME280;5493;48.884;8.338;2024-03-08T09:14:37;99696.09;;;9.19;100.00
10881;BME280;5493;48.884;8.338;2024-03-08T09:17:04;99696.88;;;8.89;100.00
10881;BME280;5493;48.884;8.338;2024-03-08T09:19:31;99702.16;;;9.14;100.00
10881;BME280;5493;48.884;8.338;2024-03-08T09:21:58;99692.22;;;8.97;100.00
10881;BME280;5493;48.884;8.338;2024-03-08T09:24:25;99692.38;;;9.02;100.00
10881;BME280;5493;48.884;8.338;2024-03-08T09:26:51;99689.16;;;9.29;100.00
10881;BME280;5493;48.884;8.338;2024-03-08T09:29:19;99690.03;;;9.23;100.00
10881;BME280;5493;48.884;8.338;2024-03-08T09:31:46;99682.03;;;9.35;100.00
10881;BME280;5493;48.884;8.338;2024-03-08T09:34:12;99690.03;;;9.23;100.00
10881;BME280;5493;48.884;8.338;2024-03-08T09:36:39;99685.16;;;9.50;100.00
10881;BME280;5493;48.884;8.338;2024-03-08T09:39:06;99674.56;;;9.37;100.00
10881;BME280;5493;48.884;8.338;2024-03-08T09:41:33;99679.41;;;9.47;100.00
10881;BME280;5493;48.884;8.338;2024-03-08T09:44:00;99675.97;;;9.58;100.00
10881;BME280;5493;48.884;8.338;2024-03-08T09:46:28;99677.22;;;9.85;100.00
10881;BME280;5493;48.884;8.338;2024-03-08T09:48:55;99661.63;;;9.75;100.00
10881;BME280;5493;48.884;8.338;2024-03-08T09:51:27;99663.50;;;9.75;100.00
10881;BME280;5493;48.884;8.338;2024-03-08T09:53:56;99655.25;;;9.58;100.00
10881;BME280;5493;48.884;8.338;2024-03-08T09:56:23;99648.84;;;9.41;100.00
10881;BME280;5493;48.884;8.338;2024-03-08T09:58:49;99648.31;;;9.51;100.00
10881;BME280;5493;48.884;8.338;2024-03-08T10:01:47;99645.53;;;9.57;100.00
10881;BME280;5493;48.884;8.338;2024-03-08T10:04:14;99634.97;;;9.56;100.00
10881;BME280;5493;48.884;8.338;2024-03-08T10:06:41;99631.88;;;9.70;100.00
10881;BME280;5493;48.884;8.338;2024-03-08T10:09:09;99640.00;;;9.82;100.00
10881;BME280;5493;48.884;8.338;2024-03-08T10:11:35;99630.41;;;9.86;100.00
10881;BME280;5493;48.884;8.338;2024-03-08T10:14:02;99629.81;;;9.96;100.00
10881;BME280;5493;48.884;8.338;2024-03-08T10:16:29;99624.50;;;10.19;100.00
10881;BME280;5493;48.884;8.338;2024-03-08T10:18:57;99622.09;;;9.99;100.00
10881;BME280;5493;48.884;8.338;2024-03-08T10:21:25;99621.63;;;10.02;100.00
10881;BME280;5493;48.884;8.338;2024-03-08T10:23:52;99625.50;;;9.95;100.00
10881;BME280;5493;48.884;8.338;2024-03-08T10:26:19;99613.84;;;10.24;100.00
10881;BME280;5493;48.884;8.338;2024-03-08T10:28:48;99610.34;;;10.23;100.00
10881;BME280;5493;48.884;8.338;2024-03-08T10:31:15;99609.97;;;10.31;100.00
10881;BME280;5493;48.884;8.338;2024-03-08T10:33:41;99608.00;;;10.27;100.00
10881;BME280;5493;48.884;8.338;2024-03-08T10:36:11;99605.28;;;10.62;100.00
10881;BME280;5493;48.884;8.338;2024-03-08T10:38:40;99606.59;;;10.48;100.00
10881;BME280;5493;48.884;8.338;2024-03-08T10:41:07;99607.13;;;10.84;100.00
10881;BME280;5493;48.884;8.338;2024-03-08T10:43:43;99604.72;;;10.48;100.00
10881;BME280;5493;48.884;8.338;2024-03-08T10:46:30;99607.28;;;10.66;100.00
10881;BME280;5493;48.884;8.338;2024-03-08T10:48:58;99604.81;;;10.53;100.00
10881;BME280;5493;48.884;8.338;2024-03-08T10:51:30;99596.69;;;10.88;100.00
10881;BME280;5493;48.884;8.338;2024-03-08T10:53:57;99601.66;;;11.93;100.00
10881;BME280;5493;48.884;8.338;2024-03-08T10:56:24;99601.16;;;11.96;100.00
10881;BME280;5493;48.884;8.338;2024-03-08T10:58:53;99593.94;;;12.01;100.00
10881;BME280;5493;48.884;8.338;2024-03-08T11:01:20;99596.72;;;11.45;100.00
10881;BME280;5493;48.884;8.338;2024-03-08T11:03:48;99592.22;;;12.28;100.00
10881;BME280;5493;48.884;8.338;2024-03-08T11:06:21;99602.31;;;12.00;100.00
10881;BME280;5493;48.884;8.338;2024-03-08T11:08:50;99580.81;;;12.26;100.00
10881;BME280;5493;48.884;8.338;2024-03-08T11:11:24;99596.97;;;12.05;100.00
10881;BME280;5493;48.884;8.338;2024-03-08T11:13:52;99592.22;;;12.67;100.00
10881;BME280;5493;48.884;8.338;2024-03-08T11:16:38;99604.53;;;12.58;100.00
10881;BME280;5493;48.884;8.338;2024-03-08T11:19:24;99586.47;;;13.02;98.10
10881;BME280;5493;48.884;8.338;2024-03-08T11:22:00;99584.53;;;13.19;100.00
10881;BME280;5493;48.884;8.338;2024-03-08T11:24:36;99576.84;;;13.64;100.00
10881;BME280;5493;48.884;8.338;2024-03-08T11:27:05;99581.22;;;13.17;100.00
10881;BME280;5493;48.884;8.338;2024-03-08T11:29:38;99579.53;;;12.89;100.00
10881;BME280;5493;48.884;8.338;2024-03-08T11:32:08;99578.03;;;13.20;98.92
10881;BME280;5493;48.884;8.338;2024-03-08T11:34:35;99574.50;;;14.05;98.68
10881;BME280;5493;48.884;8.338;2024-03-08T11:37:04;99569.94;;;14.47;100.00
10881;BME280;5493;48.884;8.338;2024-03-08T11:39:32;99563.28;;;13.59;94.38
10881;BME280;5493;48.884;8.338;2024-03-08T11:41:59;99555.09;;;13.54;93.76
10881;BME280;5493;48.884;8.338;2024-03-08T11:44:26;99558.78;;;13.16;95.96
10881;BME280;5493;48.884;8.338;2024-03-08T11:46:53;99557.91;;;13.11;96.00
10881;BME280;5493;48.884;8.338;2024-03-08T11:49:20;99558.00;;;14.11;96.66
10881;BME280;5493;48.884;8.338;2024-03-08T11:51:51;99554.97;;;13.71;92.66
10881;BME280;5493;48.884;8.338;2024-03-08T11:54:18;99553.38;;;13.16;95.38
10881;BME280;5493;48.884;8.338;2024-03-08T11:56:47;99548.03;;;13.80;91.35
10881;BME280;5493;48.884;8.338;2024-03-08T11:59:13;99544.63;;;13.36;92.67
10881;BME280;5493;48.884;8.338;2024-03-08T12:01:40;99538.31;;;14.26;96.06
10881;BME280;5493;48.884;8.338;2024-03-08T12:04:12;99537.00;;;14.34;89.06
10881;BME280;5493;48.884;8.338;2024-03-08T12:06:39;99530.16;;;14.21;88.75
10881;BME280;5493;48.884;8.338;2024-03-08T12:09:08;99527.88;;;14.45;89.47
10881;BME280;5493;48.884;8.338;2024-03-08T12:11:35;99526.81;;;14.51;93.44
10881;BME280;5493;48.884;8.338;2024-03-08T12:14:03;99521.72;;;14.59;88.42
10881;BME280;5493;48.884;8.338;2024-03-08T12:16:31;99511.81;;;14.95;87.60
10881;BME280;5493;48.884;8.338;2024-03-08T12:18:59;99511.88;;;15.10;89.57
10881;BME280;5493;48.884;8.338;2024-03-08T12:21:26;99516.06;;;14.66;88.42
10881;BME280;5493;48.884;8.338;2024-03-08T12:24:05;99508.66;;;15.39;84.58
10881;BME280;5493;48.884;8.338;2024-03-08T12:26:35;99512.59;;;14.34;88.37
10881;BME280;5493;48.884;8.338;2024-03-08T12:29:17;99514.16;;;13.82;88.15
10881;BME280;5493;48.884;8.338;2024-03-08T12:31:45;99506.84;;;14.20;90.76
10881;BME280;5493;48.884;8.338;2024-03-08T12:34:12;99499.47;;;14.10;90.45
10881;BME280;5493;48.884;8.338;2024-03-08T12:36:44;99509.59;;;13.03;92.68
10881;BME280;5493;48.884;8.338;2024-03-08T12:39:13;99498.00;;;13.61;94.48
10881;BME280;5493;48.884;8.338;2024-03-08T12:41:41;99496.28;;;12.96;94.68
10881;BME280;5493;48.884;8.338;2024-03-08T12:44:08;99482.28;;;13.95;92.32
10881;BME280;5493;48.884;8.338;2024-03-08T12:46:38;99488.81;;;13.99;91.35
10881;BME280;5493;48.884;8.338;2024-03-08T12:49:08;99478.88;;;14.66;87.00
10881;BME280;5493;48.884;8.338;2024-03-08T12:51:36;99471.25;;;14.11;88.90
10881;BME280;5493;48.884;8.338;2024-03-08T12:54:04;99474.91;;;14.89;84.94
10881;BME280;5493;48.884;8.338;2024-03-08T12:56:33;99463.94;;;14.12;89.00
10881;BME280;5493;48.884;8.338;2024-03-08T12:59:00;99460.53;;;14.94;85.70
10881;BME280;5493;48.884;8.338;2024-03-08T13:01:28;99455.81;;;14.69;81.85
10881;BME280;5493;48.884;8.338;2024-03-08T13:03:56;99442.91;;;15.26;80.72
10881;BME280;5493;48.884;8.338;2024-03-08T13:06:23;99445.41;;;13.89;84.68
10881;BME280;5493;48.884;8.338;2024-03-08T13:08:50;99443.13;;;13.70;84.21
10881;BME280;5493;48.884;8.338;2024-03-08T13:11:18;99444.63;;;14.45;86.51